createdAt,value
2023-05-19T00:02:22.449Z,1.00
2023-05-19T00:04:49.803Z,0.70
2023-05-19T00:07:19.638Z,0.80
2023-05-19T00:09:46.869Z,0.60
2023-05-19T00:12:13.968Z,0.77
2023-05-19T00:14:40.852Z,0.55
2023-05-19T00:17:07.942Z,0.88
2023-05-19T00:19:34.547Z,0.75
2023-05-19T00:22:01.144Z,0.77
2023-05-19T00:24:27.929Z,0.60
2023-05-19T00:26:54.575Z,0.60
2023-05-19T00:29:21.245Z,0.90
2023-05-19T00:31:47.964Z,0.63
2023-05-19T00:34:14.776Z,0.52
2023-05-19T00:36:41.675Z,0.68
2023-05-19T00:39:08.472Z,0.50
2023-05-19T00:41:35.360Z,0.60
2023-05-19T00:44:02.137Z,0.90
2023-05-19T00:46:30.400Z,0.60
2023-05-19T00:48:57.172Z,0.75
2023-05-19T00:51:26.397Z,0.80
2023-05-19T00:53:53.271Z,0.70
2023-05-19T00:56:20.990Z,0.70
2023-05-19T00:58:48.170Z,0.65
2023-05-19T01:01:17.307Z,0.65
2023-05-19T01:03:45.176Z,0.55
2023-05-19T01:06:12.807Z,0.68
2023-05-19T01:08:39.757Z,0.70
2023-05-19T01:11:07.382Z,0.50
2023-05-19T01:13:35.468Z,1.00
2023-05-19T01:16:27.132Z,0.50
2023-05-19T01:19:50.717Z,0.65
2023-05-19T01:22:29.377Z,0.60
2023-05-19T01:25:19.954Z,0.60
2023-05-19T01:28:24.127Z,0.73
2023-05-19T01:30:55.579Z,0.60
2023-05-19T01:33:23.493Z,0.70
2023-05-19T01:35:50.987Z,0.98
2023-05-19T01:38:19.153Z,0.70
2023-05-19T01:40:46.178Z,0.70
2023-05-19T01:43:18.166Z,0.60
2023-05-19T01:45:45.868Z,0.93
2023-05-19T01:48:13.342Z,0.70
2023-05-19T01:50:41.229Z,0.60
2023-05-19T01:53:08.189Z,0.60
2023-05-19T01:55:45.077Z,0.88
2023-05-19T01:58:46.276Z,0.55
2023-05-19T02:01:30.898Z,0.70
2023-05-19T02:04:13.782Z,0.60
2023-05-19T02:06:50.149Z,0.65
2023-05-19T02:09:34.929Z,0.50
2023-05-19T02:12:09.259Z,0.80
2023-05-19T02:14:43.703Z,0.75
2023-05-19T02:17:13.042Z,0.50
2023-05-19T02:19:42.461Z,0.60
2023-05-19T02:22:09.530Z,0.90
2023-05-19T02:24:37.675Z,0.73
2023-05-19T02:27:04.505Z,0.55
2023-05-19T02:29:31.114Z,0.75
2023-05-19T02:31:58.664Z,0.70
2023-05-19T02:34:25.559Z,0.60
2023-05-19T02:36:52.307Z,0.73
2023-05-19T02:39:18.958Z,0.80
2023-05-19T02:41:45.642Z,0.60
2023-05-19T02:44:12.298Z,0.88
2023-05-19T02:46:38.987Z,0.80
2023-05-19T02:49:05.603Z,0.70
2023-05-19T02:51:32.240Z,0.90
2023-05-19T02:53:59.043Z,0.73
2023-05-19T02:56:26.360Z,0.50
2023-05-19T02:58:53.056Z,0.60
2023-05-19T03:01:22.105Z,0.43
2023-05-19T03:03:49.061Z,0.80
2023-05-19T03:06:17.973Z,0.63
2023-05-19T03:08:45.068Z,0.88
2023-05-19T03:11:11.780Z,0.65
2023-05-19T03:13:38.389Z,0.52
2023-05-19T03:16:05.262Z,0.63
2023-05-19T03:18:31.916Z,0.68
2023-05-19T03:20:58.645Z,0.50
2023-05-19T03:23:26.466Z,0.50
2023-05-19T03:25:56.310Z,0.68
2023-05-19T03:28:23.461Z,0.80
2023-05-19T03:30:53.442Z,0.57
2023-05-19T03:33:25.073Z,0.60
2023-05-19T03:35:52.966Z,0.70
2023-05-19T03:38:20.012Z,0.60
2023-05-19T03:40:55.635Z,0.82
2023-05-19T03:43:22.317Z,0.68
2023-05-19T03:45:54.623Z,0.70
2023-05-19T03:48:44.289Z,0.50
2023-05-19T03:51:22.920Z,0.73
2023-05-19T03:53:52.654Z,0.77
2023-05-19T03:56:20.692Z,0.57
2023-05-19T03:58:48.401Z,0.80
2023-05-19T04:01:15.270Z,0.60
2023-05-19T04:03:42.002Z,0.80
2023-05-19T04:06:08.836Z,0.50
2023-05-19T04:08:35.547Z,0.70
2023-05-19T04:11:02.505Z,0.70
2023-05-19T04:13:29.471Z,0.50
2023-05-19T04:15:56.288Z,0.70
2023-05-19T04:18:23.074Z,0.60
2023-05-19T04:20:49.710Z,0.50
2023-05-19T04:23:16.349Z,0.70
2023-05-19T04:25:43.892Z,0.70
2023-05-19T04:28:10.573Z,0.80
2023-05-19T04:30:38.602Z,0.60
2023-05-19T04:33:05.535Z,0.60
2023-05-19T04:35:32.203Z,0.70
2023-05-19T04:38:01.649Z,0.75
2023-05-19T04:40:31.714Z,0.80
2023-05-19T04:42:59.030Z,0.70
2023-05-19T04:45:26.094Z,0.70
2023-05-19T04:50:25.179Z,1.00
2023-05-19T04:52:52.459Z,0.70
2023-05-19T04:55:19.581Z,0.60
2023-05-19T04:57:47.801Z,0.80
2023-05-19T05:00:15.475Z,0.70
2023-05-19T05:02:52.549Z,0.70
2023-05-19T05:05:21.179Z,0.80
2023-05-19T05:07:47.836Z,0.80
2023-05-19T05:10:14.997Z,1.10
2023-05-19T05:12:42.118Z,0.80
2023-05-19T05:15:09.617Z,0.90
2023-05-19T05:17:37.646Z,0.70
2023-05-19T05:20:06.358Z,1.05
2023-05-19T05:22:33.543Z,1.00
2023-05-19T05:25:01.832Z,0.80
2023-05-19T05:27:28.818Z,0.70
2023-05-19T05:29:56.472Z,1.10
2023-05-19T05:32:26.326Z,1.08
2023-05-19T05:34:53.201Z,0.93
2023-05-19T05:37:19.817Z,0.85
2023-05-19T05:39:46.462Z,1.30
2023-05-19T05:42:13.665Z,0.90
2023-05-19T05:44:40.728Z,0.70
2023-05-19T05:47:08.913Z,0.82
2023-05-19T05:49:38.447Z,1.10
2023-05-19T05:52:07.034Z,0.73
2023-05-19T05:54:41.225Z,1.00
2023-05-19T05:57:09.106Z,1.02
2023-05-19T05:59:36.052Z,1.45
2023-05-19T06:02:02.805Z,0.90
2023-05-19T06:04:29.583Z,0.80
2023-05-19T06:07:01.742Z,0.93
2023-05-19T06:09:32.999Z,0.85
2023-05-19T06:12:02.717Z,0.80
2023-05-19T06:14:34.709Z,1.00
2023-05-19T06:17:09.941Z,1.00
2023-05-19T06:19:36.656Z,0.75
2023-05-19T06:22:03.360Z,0.85
2023-05-19T06:24:30.926Z,0.95
2023-05-19T06:26:57.643Z,1.13
2023-05-19T06:29:24.335Z,0.90
2023-05-19T06:31:53.118Z,1.63
2023-05-19T06:34:21.103Z,1.10
2023-05-19T06:36:47.772Z,1.15
2023-05-19T06:39:15.465Z,1.17
2023-05-19T06:41:42.160Z,1.45
2023-05-19T06:44:11.883Z,0.95
2023-05-19T06:46:38.616Z,0.93
2023-05-19T06:49:05.396Z,0.93
2023-05-19T06:51:37.253Z,1.35
2023-05-19T06:54:04.382Z,1.00
2023-05-19T06:56:31.047Z,1.40
2023-05-19T06:58:58.374Z,1.20
2023-05-19T07:01:32.217Z,1.40
2023-05-19T07:04:00.531Z,1.17
2023-05-19T07:06:27.847Z,1.25
2023-05-19T07:08:54.641Z,1.38
2023-05-19T07:11:21.680Z,1.00
2023-05-19T07:13:48.683Z,1.20
2023-05-19T07:16:21.188Z,1.10
2023-05-19T07:18:47.880Z,1.15
2023-05-19T07:21:14.721Z,1.13
2023-05-19T07:23:41.485Z,1.10
2023-05-19T07:26:08.097Z,1.38
2023-05-19T07:28:34.776Z,0.98
2023-05-19T07:31:01.559Z,1.23
2023-05-19T07:33:28.225Z,1.10
2023-05-19T07:35:54.911Z,1.10
2023-05-19T07:38:21.666Z,1.10
2023-05-19T07:40:48.294Z,1.55
2023-05-19T07:43:14.992Z,1.67
2023-05-19T07:45:41.707Z,1.40
2023-05-19T07:48:08.471Z,1.85
2023-05-19T07:50:35.112Z,1.98
2023-05-19T07:53:03.000Z,2.10
2023-05-19T07:55:29.691Z,1.63
2023-05-19T07:57:56.315Z,6.20
2023-05-19T08:00:23.035Z,3.65
2023-05-19T08:02:49.792Z,2.50
2023-05-19T08:05:16.392Z,1.83
2023-05-19T08:07:43.045Z,1.77
2023-05-19T08:10:09.706Z,1.77
2023-05-19T08:12:36.404Z,1.65
2023-05-19T08:15:03.111Z,1.77
2023-05-19T08:17:29.797Z,1.63
2023-05-19T08:19:56.453Z,2.15
2023-05-19T08:22:23.149Z,1.70
2023-05-19T08:24:51.643Z,1.80
2023-05-19T08:27:18.455Z,1.50
2023-05-19T08:29:45.229Z,1.52
2023-05-19T08:32:13.355Z,1.70
2023-05-19T08:34:41.158Z,1.65
2023-05-19T08:37:07.935Z,1.55
2023-05-19T08:39:34.887Z,1.25
2023-05-19T08:42:02.397Z,1.63
2023-05-19T08:44:30.791Z,1.70
2023-05-19T08:47:00.655Z,1.23
2023-05-19T08:49:30.687Z,1.45
2023-05-19T08:52:12.219Z,1.58
2023-05-19T08:54:46.895Z,1.58
2023-05-19T08:57:13.696Z,1.35
2023-05-19T08:59:41.092Z,0.95
2023-05-19T09:02:08.898Z,1.23
2023-05-19T09:04:35.823Z,1.33
2023-05-19T09:07:03.956Z,1.30
2023-05-19T09:09:30.727Z,1.20
2023-05-19T09:11:58.012Z,1.35
2023-05-19T09:14:24.607Z,1.60
2023-05-19T09:16:52.815Z,1.13
2023-05-19T09:19:20.847Z,1.30
2023-05-19T09:21:59.468Z,1.23
2023-05-19T09:24:26.240Z,1.00
2023-05-19T09:26:56.068Z,1.17
2023-05-19T09:29:23.829Z,1.38
2023-05-19T09:31:54.795Z,1.50
2023-05-19T09:34:23.664Z,1.48
2023-05-19T09:36:51.652Z,1.35
2023-05-19T09:39:19.786Z,1.27
2023-05-19T09:41:46.757Z,1.50
2023-05-19T09:44:22.150Z,1.10
2023-05-19T09:46:50.563Z,1.05
2023-05-19T09:49:29.489Z,1.25
2023-05-19T09:51:57.663Z,1.10
2023-05-19T09:54:25.245Z,1.10
2023-05-19T09:57:02.330Z,1.30
2023-05-19T09:59:32.325Z,1.10
2023-05-19T10:02:00.992Z,1.05
2023-05-19T10:04:29.221Z,1.02
2023-05-19T10:06:59.460Z,1.15
2023-05-19T10:09:27.563Z,1.00
2023-05-19T10:11:55.816Z,1.02
2023-05-19T10:14:24.565Z,1.10
2023-05-19T10:16:52.736Z,0.70
2023-05-19T10:19:26.190Z,1.00
2023-05-19T10:21:53.586Z,0.80
2023-05-19T10:24:21.316Z,1.20
2023-05-19T10:27:07.862Z,1.10
2023-05-19T10:29:49.217Z,1.20
2023-05-19T10:32:20.199Z,0.95
2023-05-19T10:34:53.373Z,0.88
2023-05-19T10:37:33.060Z,0.73
2023-05-19T10:40:00.614Z,0.70
2023-05-19T10:42:41.065Z,1.00
2023-05-19T10:45:18.343Z,0.77
2023-05-19T10:47:45.237Z,0.95
2023-05-19T10:50:12.220Z,1.10
2023-05-19T10:52:40.226Z,1.00
2023-05-19T10:55:15.632Z,0.77
2023-05-19T10:57:54.443Z,0.95
2023-05-19T11:00:28.451Z,1.10
2023-05-19T11:06:25.730Z,0.90
2023-05-19T11:08:53.726Z,0.70
2023-05-19T11:11:21.071Z,0.98
2023-05-19T11:13:51.952Z,1.13
2023-05-19T11:16:20.155Z,1.00
2023-05-19T11:18:49.684Z,0.90
2023-05-19T11:21:16.704Z,1.00
2023-05-19T11:23:44.018Z,0.85
2023-05-19T11:26:10.786Z,0.98
2023-05-19T11:28:37.657Z,0.85
2023-05-19T11:31:07.981Z,0.95
2023-05-19T11:33:34.770Z,1.00
2023-05-19T11:36:01.567Z,0.98
2023-05-19T11:38:29.849Z,0.90
2023-05-19T11:40:57.173Z,0.80
2023-05-19T11:43:24.877Z,1.33
2023-05-19T11:45:51.933Z,1.23
2023-05-19T11:48:21.569Z,0.98
2023-05-19T11:50:48.378Z,0.90
2023-05-19T11:53:16.672Z,0.80
2023-05-19T11:55:46.700Z,1.38
2023-05-19T11:58:14.525Z,0.90
2023-05-19T12:00:42.949Z,1.27
2023-05-19T12:03:09.967Z,1.15
2023-05-19T12:05:42.022Z,0.85
2023-05-19T12:08:11.133Z,1.10
2023-05-19T12:10:38.730Z,0.90
2023-05-19T12:13:08.026Z,0.90
2023-05-19T12:15:35.149Z,1.17
2023-05-19T12:18:02.705Z,1.25
2023-05-19T12:20:32.522Z,0.80
2023-05-19T12:23:00.407Z,0.90
2023-05-19T12:25:27.923Z,0.82
2023-05-19T12:28:04.500Z,1.08
2023-05-19T12:30:32.190Z,0.90
2023-05-19T12:32:59.468Z,0.93
2023-05-19T12:35:28.089Z,0.68
2023-05-19T12:37:54.885Z,1.00
2023-05-19T12:40:22.069Z,1.10
2023-05-19T12:42:52.081Z,1.10
2023-05-19T12:45:22.804Z,1.10
2023-05-19T12:47:50.426Z,1.05
2023-05-19T12:50:17.337Z,2.30
2023-05-19T12:52:46.235Z,2.10
2023-05-19T12:55:14.131Z,2.58
2023-05-19T12:57:42.843Z,2.08
2023-05-19T13:00:19.300Z,2.17
2023-05-19T13:03:06.032Z,2.33
2023-05-19T13:05:38.419Z,2.15
2023-05-19T13:08:05.013Z,1.90
2023-05-19T13:10:32.951Z,1.75
2023-05-19T13:13:00.667Z,2.13
2023-05-19T13:15:29.423Z,1.98
2023-05-19T13:17:56.151Z,1.77
2023-05-19T13:20:24.261Z,1.73
2023-05-19T13:22:51.864Z,1.55
2023-05-19T13:25:18.617Z,1.85
2023-05-19T13:27:46.089Z,2.45
2023-05-19T13:30:12.759Z,1.65
2023-05-19T13:32:39.775Z,1.60
2023-05-19T13:35:06.796Z,1.52
2023-05-19T13:37:33.609Z,1.58
2023-05-19T13:40:00.400Z,1.40
2023-05-19T13:42:27.071Z,1.30
2023-05-19T13:44:57.496Z,1.48
2023-05-19T13:47:24.636Z,1.55
2023-05-19T13:49:51.780Z,1.30
2023-05-19T13:52:20.570Z,1.20
2023-05-19T13:54:48.197Z,1.15
2023-05-19T13:57:15.655Z,1.13
2023-05-19T13:59:57.243Z,1.48
2023-05-19T14:02:27.505Z,1.20
2023-05-19T14:04:54.269Z,1.27
2023-05-19T14:07:21.174Z,1.20
2023-05-19T14:09:47.828Z,1.20
2023-05-19T14:12:15.380Z,1.23
2023-05-19T14:14:41.995Z,1.00
2023-05-19T14:17:08.687Z,1.00
2023-05-19T14:19:35.364Z,1.00
2023-05-19T14:22:02.012Z,1.20
2023-05-19T14:24:28.581Z,1.08
2023-05-19T14:26:55.271Z,1.02
2023-05-19T14:29:21.990Z,0.80
2023-05-19T14:31:48.729Z,1.00
2023-05-19T14:34:17.861Z,1.00
2023-05-19T14:36:44.704Z,1.30
2023-05-19T14:39:11.927Z,1.08
2023-05-19T14:41:38.604Z,1.10
2023-05-19T14:44:05.595Z,1.15
2023-05-19T14:46:32.341Z,0.80
2023-05-19T14:48:58.968Z,1.10
2023-05-19T14:51:25.616Z,0.98
2023-05-19T14:53:52.314Z,0.75
2023-05-19T14:56:18.970Z,0.90
2023-05-19T14:58:45.584Z,0.68
2023-05-19T15:01:12.431Z,0.85
2023-05-19T15:03:39.265Z,0.80
2023-05-19T15:06:10.580Z,1.00
2023-05-19T15:08:37.831Z,1.00
2023-05-19T15:11:04.644Z,1.08
2023-05-19T15:13:31.351Z,0.90
2023-05-19T15:16:12.464Z,0.80
2023-05-19T15:18:42.870Z,0.60
2023-05-19T15:21:09.699Z,0.80
2023-05-19T15:23:36.412Z,0.80
2023-05-19T15:26:03.061Z,0.70
2023-05-19T15:28:29.827Z,0.88
2023-05-19T15:30:56.456Z,0.60
2023-05-19T15:33:23.108Z,0.73
2023-05-19T15:35:51.687Z,0.70
2023-05-19T15:38:19.346Z,0.65
2023-05-19T15:40:46.700Z,0.70
2023-05-19T15:43:13.700Z,0.68
2023-05-19T15:45:40.786Z,0.73
2023-05-19T15:48:07.591Z,0.70
2023-05-19T15:50:34.752Z,0.68
2023-05-19T15:53:01.813Z,0.68
2023-05-19T15:55:28.380Z,0.60
2023-05-19T15:57:55.120Z,0.82
2023-05-19T16:00:21.764Z,0.70
2023-05-19T16:02:48.571Z,0.80
2023-05-19T16:05:15.451Z,0.60
2023-05-19T16:07:42.289Z,0.60
2023-05-19T16:10:09.242Z,0.70
2023-05-19T16:12:36.679Z,0.88
2023-05-19T16:15:03.808Z,0.90
2023-05-19T16:17:30.661Z,0.70
2023-05-19T16:19:57.416Z,0.50
2023-05-19T16:22:24.876Z,0.60
2023-05-19T16:24:52.179Z,0.80
2023-05-19T16:27:19.067Z,0.77
2023-05-19T16:29:45.770Z,0.82
2023-05-19T16:32:12.739Z,0.82
2023-05-19T16:34:39.592Z,0.75
2023-05-19T16:37:06.294Z,0.55
2023-05-19T16:39:32.980Z,0.93
2023-05-19T16:41:59.600Z,0.88
2023-05-19T16:44:26.313Z,0.82
2023-05-19T16:46:53.021Z,0.75
2023-05-19T16:49:19.630Z,0.80
2023-05-19T16:51:47.544Z,1.17
2023-05-19T16:54:15.597Z,0.80
2023-05-19T16:56:42.374Z,0.70
2023-05-19T16:59:09.359Z,0.77
2023-05-19T17:01:36.149Z,1.13
2023-05-19T17:04:02.862Z,1.08
2023-05-19T17:06:29.573Z,1.10
2023-05-19T17:08:56.159Z,0.90
2023-05-19T17:11:22.956Z,1.20
2023-05-19T17:13:49.575Z,1.00
2023-05-19T17:16:16.345Z,0.95
2023-05-19T17:18:43.772Z,1.27
2023-05-19T17:21:10.691Z,0.95
2023-05-19T17:23:38.138Z,1.38
2023-05-19T17:26:05.040Z,1.17
2023-05-19T17:28:31.785Z,1.20
2023-05-19T17:30:58.463Z,1.27
2023-05-19T17:33:25.189Z,1.33
2023-05-19T17:35:51.844Z,1.20
2023-05-19T17:38:18.490Z,1.20
2023-05-19T17:40:45.100Z,1.40
2023-05-19T17:43:11.687Z,1.35
2023-05-19T17:45:38.385Z,1.20
2023-05-19T17:48:05.674Z,1.48
2023-05-19T17:50:32.514Z,1.17
2023-05-19T17:52:59.625Z,1.27
2023-05-19T17:55:29.827Z,1.60
2023-05-19T17:57:57.624Z,1.48
2023-05-19T18:00:25.286Z,1.05
2023-05-19T18:02:52.812Z,1.40
2023-05-19T18:05:19.998Z,1.27
2023-05-19T18:07:47.123Z,1.00
2023-05-19T18:10:15.257Z,1.33
2023-05-19T18:12:42.087Z,1.27
2023-05-19T18:15:08.952Z,1.30
2023-05-19T18:17:35.718Z,1.35
2023-05-19T18:20:02.510Z,1.20
2023-05-19T18:22:29.151Z,0.90
2023-05-19T18:24:57.523Z,1.15
2023-05-19T18:27:24.198Z,1.15
2023-05-19T18:29:51.725Z,1.50
2023-05-19T18:32:18.818Z,1.08
2023-05-19T18:34:45.726Z,1.30
2023-05-19T18:37:12.378Z,1.20
2023-05-19T18:39:39.032Z,1.00
2023-05-19T18:42:06.143Z,1.35
2023-05-19T18:44:33.866Z,1.20
2023-05-19T18:47:00.514Z,1.20
2023-05-19T18:49:27.105Z,0.90
2023-05-19T18:51:53.895Z,0.90
2023-05-19T18:54:21.656Z,1.20
2023-05-19T18:56:48.311Z,0.90
2023-05-19T18:59:14.920Z,1.13
2023-05-19T19:01:42.733Z,1.02
2023-05-19T19:04:09.730Z,1.10
2023-05-19T19:06:36.456Z,0.77
2023-05-19T19:09:03.414Z,1.00
2023-05-19T19:11:30.094Z,1.17
2023-05-19T19:13:56.751Z,1.05
2023-05-19T19:16:23.575Z,0.90
2023-05-19T19:18:50.323Z,0.95
2023-05-19T19:21:19.204Z,0.90
2023-05-19T19:23:46.042Z,0.70
2023-05-19T19:26:12.767Z,0.82
2023-05-19T19:28:39.367Z,1.45
2023-05-19T19:31:06.049Z,1.10
2023-05-19T19:33:32.727Z,1.02
2023-05-19T19:35:59.473Z,0.93
2023-05-19T19:38:26.139Z,0.77
2023-05-19T19:40:52.941Z,0.68
2023-05-19T19:43:19.708Z,0.80
2023-05-19T19:45:46.382Z,0.70
2023-05-19T19:48:13.030Z,0.75
2023-05-19T19:50:39.702Z,0.95
2023-05-19T19:53:06.546Z,0.90
2023-05-19T19:55:33.203Z,0.90
2023-05-19T19:57:59.790Z,0.70
2023-05-19T20:00:26.511Z,0.80
2023-05-19T20:03:04.352Z,0.70
2023-05-19T20:05:32.089Z,1.02
2023-05-19T20:07:58.772Z,1.10
2023-05-19T20:10:25.459Z,0.80
2023-05-19T20:12:52.307Z,0.70
2023-05-19T20:15:18.979Z,0.70
2023-05-19T20:17:45.772Z,1.00
2023-05-19T20:20:12.919Z,0.90
2023-05-19T20:22:39.665Z,0.90
2023-05-19T20:25:06.851Z,0.90
2023-05-19T20:27:33.650Z,0.90
2023-05-19T20:30:00.742Z,1.00
2023-05-19T20:32:27.445Z,0.88
2023-05-19T20:34:54.165Z,0.75
2023-05-19T20:37:22.052Z,0.90
2023-05-19T20:39:48.686Z,0.90
2023-05-19T20:42:15.392Z,0.80
2023-05-19T20:44:42.378Z,0.90
2023-05-19T20:47:09.020Z,0.65
2023-05-19T20:49:35.923Z,1.00
2023-05-19T20:52:02.590Z,0.65
2023-05-19T20:54:29.274Z,0.90
2023-05-19T20:56:56.003Z,0.90
2023-05-19T20:59:22.733Z,0.70
2023-05-19T21:01:49.464Z,1.02
2023-05-19T21:04:16.357Z,0.85
2023-05-19T21:06:42.959Z,0.82
2023-05-19T21:09:10.698Z,0.73
2023-05-19T21:11:37.430Z,1.25
2023-05-19T21:14:04.407Z,0.93
2023-05-19T21:16:31.864Z,0.73
2023-05-19T21:18:58.677Z,0.95
2023-05-19T21:21:25.587Z,0.80
2023-05-19T21:23:52.260Z,0.85
2023-05-19T21:26:18.951Z,0.65
2023-05-19T21:28:46.199Z,0.80
2023-05-19T21:31:12.858Z,0.80
2023-05-19T21:33:39.670Z,0.90
2023-05-19T21:36:06.610Z,0.82
2023-05-19T21:38:33.247Z,0.82
2023-05-19T21:40:59.910Z,0.95
2023-05-19T21:43:26.752Z,0.80
2023-05-19T21:45:53.323Z,0.80
2023-05-19T21:48:20.069Z,0.70
2023-05-19T21:50:46.679Z,1.00
2023-05-19T21:53:13.330Z,0.80
2023-05-19T21:55:40.040Z,0.75
2023-05-19T21:58:06.712Z,0.73
2023-05-19T22:00:34.162Z,0.80
2023-05-19T22:03:01.131Z,0.80
2023-05-19T22:05:29.781Z,0.65
2023-05-19T22:07:56.621Z,0.68
2023-05-19T22:10:23.347Z,0.90
2023-05-19T22:12:49.987Z,0.77
2023-05-19T22:15:16.551Z,0.80
2023-05-19T22:17:43.346Z,0.90
2023-05-19T22:20:10.471Z,0.98
2023-05-19T22:22:37.143Z,0.90
2023-05-19T22:25:04.703Z,0.80
2023-05-19T22:27:31.514Z,0.65
2023-05-19T22:29:59.904Z,0.93
2023-05-19T22:32:26.709Z,0.90
2023-05-19T22:34:53.455Z,0.75
2023-05-19T22:37:22.312Z,0.73
2023-05-19T22:39:48.973Z,0.77
2023-05-19T22:42:15.758Z,0.80
2023-05-19T22:44:43.352Z,0.90
2023-05-19T22:47:13.415Z,0.70
2023-05-19T22:49:40.974Z,0.85
2023-05-19T22:52:09.128Z,0.90
2023-05-19T22:54:35.763Z,0.80
2023-05-19T22:57:03.308Z,0.68
2023-05-19T22:59:30.062Z,0.60
2023-05-19T23:01:56.851Z,0.88
2023-05-19T23:04:23.588Z,0.77
2023-05-19T23:06:50.425Z,0.85
2023-05-19T23:09:17.978Z,0.70
2023-05-19T23:11:45.150Z,0.57
2023-05-19T23:14:11.823Z,0.77
2023-05-19T23:16:38.807Z,0.70
2023-05-19T23:19:05.480Z,0.60
2023-05-19T23:21:32.455Z,0.60
2023-05-19T23:23:59.520Z,0.90
2023-05-19T23:26:26.925Z,0.73
2023-05-19T23:28:53.567Z,0.73
2023-05-19T23:31:20.325Z,0.88
2023-05-19T23:33:47.022Z,0.90
2023-05-19T23:36:13.719Z,0.80
2023-05-19T23:38:40.318Z,0.70
2023-05-19T23:41:07.028Z,0.60
2023-05-19T23:43:33.596Z,0.77
2023-05-19T23:46:00.614Z,0.65
2023-05-19T23:48:31.242Z,0.68
2023-05-19T23:50:58.645Z,0.60
2023-05-19T23:53:25.283Z,0.60
2023-05-19T23:55:51.966Z,0.60
2023-05-19T23:58:18.758Z,0.60
